createdAt,value
2023-04-11T00:01:08.543Z,11.03
2023-04-11T00:03:39.653Z,12.57
2023-04-11T00:06:08.633Z,13.93
2023-04-11T00:08:36.612Z,10.33
2023-04-11T00:11:04.525Z,12.40
2023-04-11T00:13:32.553Z,9.40
2023-04-11T00:16:03.373Z,12.90
2023-04-11T00:18:31.432Z,10.10
2023-04-11T00:21:00.699Z,13.33
2023-04-11T00:23:28.708Z,11.73
2023-04-11T00:25:56.608Z,10.93
2023-04-11T00:28:24.620Z,13.93
2023-04-11T00:30:52.698Z,11.10
2023-04-11T00:33:21.283Z,10.93
2023-04-11T00:35:49.270Z,11.23
2023-04-11T00:38:18.606Z,10.20
2023-04-11T00:40:47.090Z,9.93
2023-04-11T00:43:15.420Z,11.67
2023-04-11T00:45:43.805Z,13.10
2023-04-11T00:48:11.953Z,13.43
2023-04-11T00:50:42.075Z,12.53
2023-04-11T00:53:12.089Z,13.30
2023-04-11T00:55:42.361Z,10.60
2023-04-11T00:58:10.579Z,12.70
2023-04-11T01:00:38.660Z,12.40
2023-04-11T01:03:06.941Z,11.40
2023-04-11T01:05:36.116Z,12.53
2023-04-11T01:08:05.961Z,11.20
2023-04-11T01:10:34.339Z,11.23
2023-04-11T01:13:04.123Z,10.00
2023-04-11T01:15:32.504Z,11.23
2023-04-11T01:18:02.115Z,12.17
2023-04-11T01:20:31.868Z,13.10
2023-04-11T01:23:02.981Z,10.80
2023-04-11T01:25:32.357Z,11.17
2023-04-11T01:28:00.625Z,12.10
2023-04-11T01:30:28.666Z,11.77
2023-04-11T01:32:56.701Z,12.50
2023-04-11T01:35:24.948Z,11.53
2023-04-11T01:37:53.414Z,12.67
2023-04-11T01:40:23.677Z,11.10
2023-04-11T01:42:54.645Z,11.33
2023-04-11T01:45:23.600Z,14.00
2023-04-11T01:47:52.934Z,12.03
2023-04-11T01:50:21.103Z,13.00
2023-04-11T01:52:49.394Z,12.40
2023-04-11T01:55:18.018Z,13.30
2023-04-11T01:57:45.960Z,12.10
2023-04-11T02:00:16.962Z,14.97
2023-04-11T02:02:46.851Z,13.60
2023-04-11T02:05:15.001Z,15.20
2023-04-11T02:07:42.882Z,14.67
2023-04-11T02:10:11.184Z,14.70
2023-04-11T02:12:39.122Z,13.77
2023-04-11T02:15:08.822Z,15.17
2023-04-11T02:17:45.586Z,13.87
2023-04-11T02:20:14.665Z,13.73
2023-04-11T02:22:42.805Z,14.40
2023-04-11T02:25:11.152Z,14.30
2023-04-11T02:27:39.167Z,13.37
2023-04-11T02:30:08.429Z,16.33
2023-04-11T02:32:39.487Z,15.63
2023-04-11T02:35:08.691Z,16.90
2023-04-11T02:37:37.364Z,15.27
2023-04-11T02:40:06.195Z,14.17
2023-04-11T02:42:34.213Z,14.70
2023-04-11T02:45:02.383Z,13.63
2023-04-11T02:47:30.527Z,15.33
2023-04-11T02:50:05.363Z,15.67
2023-04-11T02:52:42.187Z,15.40
2023-04-11T02:55:12.088Z,14.03
2023-04-11T02:57:40.285Z,15.10
2023-04-11T03:00:13.016Z,16.70
2023-04-11T03:02:49.105Z,14.50
2023-04-11T03:05:22.807Z,19.20
2023-04-11T03:07:53.701Z,16.60
2023-04-11T03:10:21.708Z,16.80
2023-04-11T03:12:49.749Z,17.63
2023-04-11T03:15:17.775Z,14.47
2023-04-11T03:17:45.878Z,15.13
2023-04-11T03:20:20.181Z,17.97
2023-04-11T03:22:55.182Z,14.70
2023-04-11T03:25:24.570Z,14.00
2023-04-11T03:27:53.528Z,17.97
2023-04-11T03:30:21.610Z,16.63
2023-04-11T03:32:49.713Z,14.30
2023-04-11T03:35:20.428Z,15.40
2023-04-11T03:37:50.457Z,17.67
2023-04-11T03:40:19.839Z,16.80
2023-04-11T03:42:53.432Z,14.37
2023-04-11T03:45:26.496Z,16.30
2023-04-11T03:47:56.177Z,18.07
2023-04-11T03:50:29.087Z,15.50
2023-04-11T03:53:01.530Z,14.27
2023-04-11T03:55:32.544Z,15.53
2023-04-11T03:58:02.874Z,15.50
2023-04-11T04:00:32.259Z,15.67
2023-04-11T04:03:07.003Z,16.37
2023-04-11T04:05:35.487Z,14.47
2023-04-11T04:08:04.071Z,16.47
2023-04-11T04:10:43.362Z,16.90
2023-04-11T04:13:11.500Z,16.67
2023-04-11T04:15:43.583Z,15.60
2023-04-11T04:18:13.687Z,20.30
2023-04-11T04:20:48.105Z,16.23
2023-04-11T04:23:21.920Z,16.40
2023-04-11T04:26:17.632Z,15.20
2023-04-11T04:28:54.069Z,20.40
2023-04-11T04:31:33.752Z,16.30
2023-04-11T04:34:11.544Z,17.80
2023-04-11T04:36:47.746Z,19.00
2023-04-11T04:39:20.484Z,20.87
2023-04-11T04:41:58.352Z,20.07
2023-04-11T04:44:33.286Z,17.87
2023-04-11T04:47:06.244Z,18.30
2023-04-11T04:49:34.370Z,21.00
2023-04-11T04:52:02.468Z,20.30
2023-04-11T04:54:31.273Z,20.57
2023-04-11T04:57:01.274Z,18.17
2023-04-11T04:59:30.062Z,21.40
2023-04-11T05:02:06.174Z,17.87
2023-04-11T05:04:35.317Z,20.73
2023-04-11T05:07:04.220Z,20.90
2023-04-11T05:09:33.262Z,19.17
2023-04-11T05:12:17.856Z,19.37
2023-04-11T05:14:47.468Z,19.63
2023-04-11T05:17:16.357Z,20.90
2023-04-11T05:19:44.316Z,19.03
2023-04-11T05:22:12.764Z,19.13
2023-04-11T05:24:46.028Z,18.30
2023-04-11T05:27:14.464Z,18.43
2023-04-11T05:29:45.023Z,20.10
2023-04-11T05:32:13.820Z,22.33
2023-04-11T05:34:54.298Z,18.30
2023-04-11T05:37:34.554Z,16.27
2023-04-11T05:40:02.641Z,18.70
2023-04-11T05:42:30.664Z,19.87
2023-04-11T05:45:01.876Z,20.73
2023-04-11T05:47:29.850Z,21.50
2023-04-11T05:49:57.864Z,22.40
2023-04-11T05:52:26.518Z,18.30
2023-04-11T05:54:54.452Z,21.23
2023-04-11T05:57:23.473Z,20.53
2023-04-11T05:59:52.918Z,18.50
2023-04-11T06:02:22.373Z,20.43
2023-04-11T06:04:51.098Z,17.53
2023-04-11T06:07:19.151Z,20.33
2023-04-11T06:09:47.056Z,22.97
2023-04-11T06:12:15.091Z,22.60
2023-04-11T06:14:43.086Z,21.33
2023-04-11T06:17:11.009Z,23.77
2023-04-11T06:19:41.120Z,19.50
2023-04-11T06:22:09.065Z,20.33
2023-04-11T06:24:38.918Z,18.33
2023-04-11T06:27:09.856Z,21.67
2023-04-11T06:29:38.083Z,21.10
2023-04-11T06:32:07.221Z,20.57
2023-04-11T06:34:35.568Z,20.40
2023-04-11T06:37:04.894Z,19.83
2023-04-11T06:39:32.873Z,20.27
2023-04-11T06:42:00.776Z,21.20
2023-04-11T06:44:28.913Z,20.60
2023-04-11T06:46:56.973Z,19.00
2023-04-11T06:49:24.989Z,22.80
2023-04-11T06:51:54.173Z,20.20
2023-04-11T06:54:23.826Z,18.83
2023-04-11T06:56:51.845Z,17.33
2023-04-11T06:59:20.584Z,20.37
2023-04-11T07:01:49.448Z,18.03
2023-04-11T07:04:17.697Z,18.70
2023-04-11T07:06:45.879Z,19.53
2023-04-11T07:09:13.768Z,20.20
2023-04-11T07:11:43.006Z,18.30
2023-04-11T07:14:11.004Z,19.30
2023-04-11T07:16:38.978Z,19.10
2023-04-11T07:19:07.097Z,19.57
2023-04-11T07:21:35.023Z,14.97
2023-04-11T07:24:03.072Z,17.33
2023-04-11T07:26:32.730Z,19.70
2023-04-11T07:29:02.290Z,16.83
2023-04-11T07:31:30.835Z,22.13
2023-04-11T07:33:59.078Z,17.93
2023-04-11T07:36:27.596Z,20.10
2023-04-11T07:38:55.469Z,17.13
2023-04-11T07:41:23.444Z,18.53
2023-04-11T07:43:51.577Z,17.30
2023-04-11T07:46:20.978Z,19.50
2023-04-11T07:48:49.039Z,17.10
2023-04-11T07:51:18.002Z,16.27
2023-04-11T07:53:46.084Z,19.10
2023-04-11T07:56:14.205Z,17.20
2023-04-11T07:58:42.294Z,17.50
2023-04-11T08:01:22.636Z,18.10
2023-04-11T08:03:50.975Z,18.53
2023-04-11T08:06:18.997Z,15.50
2023-04-11T08:08:47.873Z,20.73
2023-04-11T08:11:16.376Z,19.37
2023-04-11T08:13:44.774Z,14.30
2023-04-11T08:16:15.042Z,16.43
2023-04-11T08:18:45.771Z,16.50
2023-04-11T08:21:13.852Z,14.63
2023-04-11T08:23:53.585Z,15.23
2023-04-11T08:26:21.527Z,15.50
2023-04-11T08:28:49.408Z,13.87
2023-04-11T08:31:18.315Z,15.20
2023-04-11T08:33:47.740Z,15.67
2023-04-11T08:36:15.700Z,15.00
2023-04-11T08:38:43.694Z,15.40
2023-04-11T08:41:12.290Z,14.20
2023-04-11T08:43:40.849Z,20.20
2023-04-11T08:46:09.719Z,22.00
2023-04-11T08:48:37.660Z,21.03
2023-04-11T08:51:07.566Z,19.00
2023-04-11T08:53:38.518Z,16.70
2023-04-11T08:56:06.815Z,17.50
2023-04-11T08:58:34.740Z,18.10
2023-04-11T09:01:26.067Z,20.83
2023-04-11T09:03:54.305Z,18.40
2023-04-11T09:06:23.692Z,15.87
2023-04-11T09:08:51.841Z,19.37
2023-04-11T09:11:19.934Z,16.43
2023-04-11T09:13:48.597Z,14.60
2023-04-11T09:16:16.729Z,10.37
2023-04-11T09:18:46.547Z,7.60
2023-04-11T09:21:16.354Z,7.67
2023-04-11T09:23:45.815Z,9.17
2023-04-11T09:26:24.961Z,11.90
2023-04-11T09:28:53.775Z,8.47
2023-04-11T09:31:22.478Z,10.37
2023-04-11T09:33:55.318Z,7.03
2023-04-11T09:36:25.284Z,8.00
2023-04-11T09:38:55.935Z,6.97
2023-04-11T09:41:32.060Z,5.97
2023-04-11T09:44:00.524Z,3.30
2023-04-11T09:46:28.632Z,6.70
2023-04-11T09:48:57.187Z,3.23
2023-04-11T09:51:35.007Z,2.00
2023-04-11T09:54:06.568Z,1.80
2023-04-11T09:56:35.423Z,2.07
2023-04-11T09:59:04.770Z,3.00
2023-04-11T10:01:32.930Z,1.77
2023-04-11T10:04:01.838Z,2.10
2023-04-11T10:06:33.857Z,1.97
2023-04-11T10:09:09.553Z,1.83
2023-04-11T10:11:37.820Z,1.10
2023-04-11T10:14:05.777Z,1.10
2023-04-11T10:16:34.408Z,2.07
2023-04-11T10:19:25.233Z,1.67
2023-04-11T10:21:53.377Z,1.50
2023-04-11T10:24:22.841Z,1.17
2023-04-11T10:26:52.835Z,1.30
2023-04-11T10:29:51.423Z,2.07
2023-04-11T10:32:22.323Z,1.70
2023-04-11T10:35:29.393Z,1.57
2023-04-11T10:37:58.252Z,1.40
2023-04-11T10:40:27.815Z,1.23
2023-04-11T10:42:57.416Z,1.67
2023-04-11T10:45:26.893Z,1.07
2023-04-11T10:48:11.651Z,3.37
2023-04-11T10:50:44.584Z,1.27
2023-04-11T10:53:37.575Z,3.90
2023-04-11T10:56:07.538Z,1.50
2023-04-11T10:58:37.317Z,1.20
2023-04-11T11:01:32.355Z,1.00
2023-04-11T11:04:11.046Z,1.20
2023-04-11T11:06:47.194Z,1.03
2023-04-11T11:09:23.968Z,0.80
2023-04-11T11:25:11.918Z,1.00
2023-04-11T11:27:40.068Z,1.87
2023-04-11T11:30:18.393Z,1.10
2023-04-11T11:32:46.712Z,1.47
2023-04-11T11:35:15.048Z,2.63
2023-04-11T11:37:43.178Z,1.50
2023-04-11T11:40:13.804Z,2.67
2023-04-11T11:42:42.622Z,1.13
2023-04-11T11:45:17.331Z,3.23
2023-04-11T11:47:46.251Z,2.50
2023-04-11T11:50:27.401Z,1.73
2023-04-11T11:52:56.600Z,1.50
2023-04-11T11:55:34.960Z,1.90
2023-04-11T11:58:03.745Z,1.73
2023-04-11T12:00:38.711Z,3.10
2023-04-11T12:03:09.757Z,1.57
2023-04-11T12:05:38.059Z,1.80
2023-04-11T12:08:07.811Z,2.37
2023-04-11T12:10:42.463Z,2.37
2023-04-11T12:13:15.695Z,2.80
2023-04-11T12:15:47.114Z,2.10
2023-04-11T12:18:15.402Z,2.10
2023-04-11T12:20:43.433Z,2.33
2023-04-11T12:23:11.552Z,1.90
2023-04-11T12:25:41.712Z,2.57
2023-04-11T12:28:10.281Z,2.33
2023-04-11T12:30:38.808Z,2.50
2023-04-11T12:33:07.286Z,2.80
2023-04-11T12:35:35.778Z,2.93
2023-04-11T12:38:04.314Z,2.60
2023-04-11T12:40:32.616Z,3.10
2023-04-11T12:43:02.116Z,3.00
2023-04-11T12:45:30.305Z,3.43
2023-04-11T12:47:58.422Z,6.03
2023-04-11T12:50:26.613Z,4.03
2023-04-11T12:52:56.226Z,4.23
2023-04-11T12:55:24.894Z,3.73
2023-04-11T12:57:53.495Z,3.93
2023-04-11T13:00:23.528Z,4.00
2023-04-11T13:02:52.018Z,3.63
2023-04-11T13:05:20.852Z,5.83
2023-04-11T13:07:49.469Z,4.73
2023-04-11T13:10:17.860Z,3.07
2023-04-11T13:12:46.668Z,2.17
2023-04-11T13:15:16.382Z,3.17
2023-04-11T13:17:46.201Z,8.27
2023-04-11T13:20:14.532Z,3.53
2023-04-11T13:22:44.421Z,3.53
2023-04-11T13:25:13.134Z,1.87
2023-04-11T13:27:42.826Z,1.30
2023-04-11T13:30:12.062Z,2.80
2023-04-11T13:32:40.431Z,1.53
2023-04-11T13:35:10.784Z,3.60
2023-04-11T13:37:38.872Z,2.03
2023-04-11T13:40:08.705Z,1.50
2023-04-11T13:42:36.976Z,2.40
2023-04-11T13:45:05.957Z,2.00
2023-04-11T13:47:37.643Z,1.67
2023-04-11T13:50:10.152Z,2.30
2023-04-11T13:52:38.399Z,4.43
2023-04-11T13:55:07.272Z,3.23
2023-04-11T13:57:35.361Z,2.07
2023-04-11T14:00:11.263Z,1.73
2023-04-11T14:02:40.336Z,3.60
2023-04-11T14:05:11.537Z,1.60
2023-04-11T14:07:39.705Z,2.20
2023-04-11T14:10:08.721Z,1.83
2023-04-11T14:12:37.224Z,1.50
2023-04-11T14:15:06.108Z,3.63
2023-04-11T14:17:34.190Z,2.33
2023-04-11T14:20:02.352Z,1.70
2023-04-11T14:22:32.359Z,2.23
2023-04-11T14:25:00.476Z,1.67
2023-04-11T14:27:28.518Z,1.53
2023-04-11T14:29:56.805Z,3.77
2023-04-11T14:32:24.960Z,1.50
2023-04-11T14:34:53.733Z,1.67
2023-04-11T14:37:21.878Z,1.20
2023-04-11T14:39:51.289Z,2.93
2023-04-11T14:42:19.360Z,4.10
2023-04-11T14:44:47.470Z,3.00
2023-04-11T14:47:15.670Z,3.37
2023-04-11T14:49:44.112Z,2.70
2023-04-11T14:52:12.283Z,4.33
2023-04-11T14:54:40.382Z,11.50
2023-04-11T14:57:09.846Z,12.03
2023-04-11T14:59:38.325Z,14.47
2023-04-11T15:02:07.001Z,6.07
2023-04-11T15:04:35.149Z,7.47
2023-04-11T15:07:04.866Z,16.33
2023-04-11T15:09:33.596Z,4.40
2023-04-11T15:12:02.202Z,3.87
2023-04-11T15:14:31.537Z,3.00
2023-04-11T15:16:59.546Z,1.50
2023-04-11T15:19:28.388Z,4.13
2023-04-11T15:21:56.619Z,2.90
2023-04-11T15:24:24.684Z,2.93
2023-04-11T15:26:52.788Z,2.10
2023-04-11T15:29:20.847Z,1.53
2023-04-11T15:31:50.325Z,2.20
2023-04-11T15:34:18.354Z,2.70
2023-04-11T15:36:47.104Z,4.10
2023-04-11T15:39:16.412Z,1.53
2023-04-11T15:41:45.502Z,2.63
2023-04-11T15:44:13.592Z,3.00
2023-04-11T15:46:41.929Z,1.80
2023-04-11T15:49:11.683Z,3.97
2023-04-11T15:51:39.828Z,2.20
2023-04-11T15:54:08.887Z,3.03
2023-04-11T15:56:37.341Z,2.50
2023-04-11T15:59:05.785Z,1.63
2023-04-11T16:01:33.940Z,1.10
2023-04-11T16:04:02.861Z,1.33
2023-04-11T16:06:32.761Z,2.13
2023-04-11T16:09:00.906Z,2.17
2023-04-11T16:11:29.093Z,2.10
2023-04-11T16:13:58.142Z,1.93
2023-04-11T16:16:26.522Z,2.80
2023-04-11T16:18:54.793Z,1.57
2023-04-11T16:21:24.828Z,2.53
2023-04-11T16:23:55.396Z,1.83
2023-04-11T16:26:24.034Z,1.60
2023-04-11T16:28:52.245Z,1.53
2023-04-11T16:31:24.552Z,2.73
2023-04-11T16:33:55.178Z,3.50
2023-04-11T16:36:23.780Z,5.17
2023-04-11T16:38:52.018Z,2.60
2023-04-11T16:41:22.591Z,3.27
2023-04-11T16:43:50.805Z,3.07
2023-04-11T16:46:19.079Z,4.50
2023-04-11T16:48:47.263Z,2.03
2023-04-11T16:51:18.334Z,2.43
2023-04-11T16:53:47.493Z,2.20
2023-04-11T16:56:15.592Z,1.00
2023-04-11T16:58:45.278Z,1.40
2023-04-11T17:01:13.878Z,1.67
2023-04-11T17:03:43.045Z,6.17
2023-04-11T17:06:15.060Z,2.87
2023-04-11T17:08:44.382Z,7.30
2023-04-11T17:11:13.648Z,5.73
2023-04-11T17:13:45.251Z,4.40
2023-04-11T17:16:15.315Z,3.27
2023-04-11T17:18:43.442Z,5.10
2023-04-11T17:21:11.593Z,7.63
2023-04-11T17:23:43.294Z,2.40
2023-04-11T17:26:25.560Z,3.03
2023-04-11T17:28:53.884Z,2.30
2023-04-11T17:31:23.630Z,2.60
2023-04-11T17:33:51.857Z,1.90
2023-04-11T17:36:20.085Z,2.13
2023-04-11T17:38:48.454Z,4.67
2023-04-11T17:41:16.851Z,1.97
2023-04-11T17:43:45.268Z,3.43
2023-04-11T17:46:13.820Z,1.30
2023-04-11T17:48:43.460Z,1.43
2023-04-11T17:51:11.589Z,3.30
2023-04-11T17:53:39.668Z,4.13
2023-04-11T17:56:08.584Z,2.87
2023-04-11T17:58:37.145Z,2.77
2023-04-11T18:01:11.151Z,1.37
2023-04-11T18:03:40.196Z,9.20
2023-04-11T18:06:11.606Z,2.03
2023-04-11T18:11:12.673Z,1.53
2023-04-11T18:13:40.940Z,2.20
2023-04-11T18:16:11.562Z,4.80
2023-04-11T18:18:39.753Z,4.50
2023-04-11T18:21:09.546Z,3.07
2023-04-11T18:23:37.672Z,1.97
2023-04-11T18:26:06.188Z,1.90
2023-04-11T18:28:34.559Z,1.67
2023-04-11T18:31:02.838Z,2.47
2023-04-11T18:33:31.948Z,3.00
2023-04-11T18:36:00.245Z,2.70
2023-04-11T18:38:29.864Z,2.00
2023-04-11T18:41:01.314Z,1.90
2023-04-11T18:43:31.872Z,2.20
2023-04-11T18:46:02.459Z,3.30
2023-04-11T18:48:31.765Z,2.27
2023-04-11T18:51:00.989Z,2.60
2023-04-11T18:53:31.154Z,2.30
2023-04-11T18:56:03.016Z,2.57
2023-04-11T18:58:33.507Z,1.73
2023-04-11T19:01:14.708Z,2.00
2023-04-11T19:03:45.066Z,2.40
2023-04-11T19:06:13.799Z,2.33
2023-04-11T19:08:43.944Z,5.13
2023-04-11T19:11:11.981Z,7.03
2023-04-11T19:13:41.064Z,3.90
2023-04-11T19:16:09.224Z,2.83
2023-04-11T19:18:37.652Z,2.10
2023-04-11T19:21:06.000Z,2.30
2023-04-11T19:23:34.083Z,2.53
2023-04-11T19:26:03.966Z,3.03
2023-04-11T19:28:32.194Z,3.17
2023-04-11T19:31:00.665Z,3.10
2023-04-11T19:33:29.531Z,3.33
2023-04-11T19:35:58.751Z,5.13
2023-04-11T19:38:26.896Z,3.47
2023-04-11T19:40:55.848Z,2.60
2023-04-11T19:43:25.311Z,2.77
2023-04-11T19:45:53.750Z,2.70
2023-04-11T19:48:22.636Z,3.00
2023-04-11T19:50:52.840Z,2.67
2023-04-11T19:53:21.687Z,3.20
2023-04-11T19:55:52.335Z,2.93
2023-04-11T19:58:21.470Z,4.60
2023-04-11T20:00:53.046Z,3.03
2023-04-11T20:03:21.491Z,3.00
2023-04-11T20:05:50.792Z,3.53
2023-04-11T20:08:21.119Z,5.67
2023-04-11T20:10:49.339Z,2.73
2023-04-11T20:13:17.737Z,4.60
2023-04-11T20:15:45.874Z,3.90
2023-04-11T20:18:16.132Z,6.50
2023-04-11T20:20:45.517Z,3.13
2023-04-11T20:23:15.598Z,3.20
2023-04-11T20:25:43.869Z,3.10
2023-04-11T20:28:12.536Z,3.30
2023-04-11T20:30:40.795Z,3.67
2023-04-11T20:33:08.955Z,6.00
2023-04-11T20:35:38.587Z,4.13
2023-04-11T20:38:07.078Z,3.90
2023-04-11T20:40:35.776Z,3.30
2023-04-11T20:43:03.915Z,6.57
2023-04-11T20:45:33.521Z,5.17
2023-04-11T20:48:02.102Z,4.83
2023-04-11T20:50:33.412Z,6.97
2023-04-11T20:53:03.199Z,4.17
2023-04-11T20:55:33.381Z,4.73
2023-04-11T20:58:01.672Z,3.60
2023-04-11T21:00:30.220Z,2.77
2023-04-11T21:02:58.383Z,2.20
2023-04-11T21:05:26.984Z,9.60
2023-04-11T21:07:55.537Z,4.50
2023-04-11T21:10:25.317Z,3.20
2023-04-11T21:12:54.335Z,2.30
2023-04-11T21:15:23.135Z,2.57
2023-04-11T21:17:52.468Z,2.90
2023-04-11T21:20:21.234Z,4.10
2023-04-11T21:22:50.911Z,6.57
2023-04-11T21:25:19.153Z,3.83
2023-04-11T21:27:49.848Z,3.80
2023-04-11T21:30:17.951Z,3.90
2023-04-11T21:32:46.152Z,3.00
2023-04-11T21:35:14.706Z,2.90
2023-04-11T21:37:42.782Z,2.77
2023-04-11T21:40:12.769Z,2.17
2023-04-11T21:42:40.972Z,3.50
2023-04-11T21:45:11.163Z,2.70
2023-04-11T21:47:39.920Z,3.00
2023-04-11T21:50:09.526Z,3.53
2023-04-11T21:52:37.647Z,3.13
2023-04-11T21:55:08.676Z,2.80
2023-04-11T21:57:37.400Z,2.70
2023-04-11T22:00:07.527Z,3.72
2023-04-11T22:02:44.289Z,4.57
2023-04-11T22:05:12.874Z,5.38
2023-04-11T22:07:50.272Z,3.65
2023-04-11T22:10:22.731Z,4.13
2023-04-11T22:12:53.994Z,4.70
2023-04-11T22:15:23.881Z,4.28
2023-04-11T22:17:54.439Z,4.13
2023-04-11T22:20:22.917Z,4.28
2023-04-11T22:22:50.967Z,4.15
2023-04-11T22:25:22.328Z,4.13
2023-04-11T22:27:54.375Z,4.60
2023-04-11T22:30:24.727Z,5.95
2023-04-11T22:32:55.656Z,4.88
2023-04-11T22:35:24.762Z,4.20
2023-04-11T22:37:53.852Z,4.55
2023-04-11T22:40:23.056Z,4.28
2023-04-11T22:42:52.023Z,4.63
2023-04-11T22:45:20.841Z,4.30
2023-04-11T22:47:54.331Z,4.20
2023-04-11T22:50:24.240Z,5.03
2023-04-11T22:52:52.479Z,3.92
2023-04-11T22:55:21.309Z,4.30
2023-04-11T22:57:49.446Z,3.58
2023-04-11T23:00:18.808Z,4.60
2023-04-11T23:02:47.197Z,4.15
2023-04-11T23:05:16.869Z,4.65
2023-04-11T23:07:46.349Z,3.72
2023-04-11T23:10:15.587Z,7.05
2023-04-11T23:12:44.550Z,3.20
2023-04-11T23:15:13.291Z,4.85
2023-04-11T23:17:41.874Z,3.17
2023-04-11T23:20:13.340Z,4.15
2023-04-11T23:22:43.258Z,4.30
2023-04-11T23:25:14.142Z,3.50
2023-04-11T23:27:42.986Z,4.28
2023-04-11T23:30:12.706Z,3.53
2023-04-11T23:32:41.525Z,2.90
2023-04-11T23:35:10.583Z,4.18
2023-04-11T23:37:38.847Z,3.40
2023-04-11T23:40:10.604Z,3.67
2023-04-11T23:42:40.435Z,5.00
2023-04-11T23:45:10.700Z,3.15
2023-04-11T23:47:39.129Z,4.45
2023-04-11T23:50:08.186Z,3.83
2023-04-11T23:52:36.530Z,3.83
2023-04-11T23:55:05.027Z,4.03
2023-04-11T23:57:33.385Z,3.75
